createdAt,value
2018-12-14T00:01:06.204Z,36.77
2018-12-14T00:03:34.891Z,37.23
2018-12-14T00:06:03.306Z,39.17
2018-12-14T00:08:31.854Z,33.97
2018-12-14T00:11:00.777Z,34.77
2018-12-14T00:13:29.644Z,31.50
2018-12-14T00:15:58.150Z,30.10
2018-12-14T00:18:26.658Z,29.80
2018-12-14T00:20:55.227Z,29.57
2018-12-14T00:23:24.001Z,28.90
2018-12-14T00:25:52.436Z,28.70
2018-12-14T00:28:20.859Z,28.57
2018-12-14T00:30:49.450Z,27.73
2018-12-14T00:33:17.887Z,28.13
2018-12-14T00:35:46.522Z,28.03
2018-12-14T00:38:14.995Z,27.13
2018-12-14T00:40:43.601Z,27.53
2018-12-14T00:43:12.278Z,27.40
2018-12-14T00:45:40.854Z,28.17
2018-12-14T00:48:09.395Z,26.60
2018-12-14T00:50:37.981Z,26.97
2018-12-14T00:53:06.718Z,26.63
2018-12-14T00:55:35.207Z,24.07
2018-12-14T00:58:03.739Z,24.30
2018-12-14T01:00:32.473Z,24.17
2018-12-14T01:03:01.008Z,24.57
2018-12-14T01:05:29.498Z,24.27
2018-12-14T01:07:58.126Z,25.17
2018-12-14T01:10:26.547Z,23.30
2018-12-14T01:12:54.983Z,22.77
2018-12-14T01:15:23.484Z,24.30
2018-12-14T01:17:51.991Z,21.63
2018-12-14T01:20:20.510Z,20.83
2018-12-14T01:22:49.133Z,20.90
2018-12-14T01:25:17.730Z,21.33
2018-12-14T01:27:46.272Z,20.03
2018-12-14T01:30:14.906Z,20.70
2018-12-14T01:32:43.323Z,19.53
2018-12-14T01:35:11.920Z,19.17
2018-12-14T01:37:40.640Z,18.03
2018-12-14T01:40:09.433Z,18.40
2018-12-14T01:42:37.846Z,18.97
2018-12-14T01:45:06.601Z,18.97
2018-12-14T01:47:35.284Z,20.20
2018-12-14T01:50:04.509Z,19.30
2018-12-14T01:52:33.040Z,21.00
2018-12-14T01:55:01.730Z,17.10
2018-12-14T01:57:30.517Z,22.20
2018-12-14T01:59:59.241Z,16.03
2018-12-14T02:02:27.693Z,14.00
2018-12-14T02:04:56.144Z,15.53
2018-12-14T02:07:24.778Z,14.10
2018-12-14T02:09:53.227Z,14.27
2018-12-14T02:12:21.695Z,13.40
2018-12-14T02:14:50.215Z,13.43
2018-12-14T02:17:18.699Z,13.33
2018-12-14T02:19:47.259Z,13.03
2018-12-14T02:22:15.698Z,11.73
2018-12-14T02:24:44.225Z,12.00
2018-12-14T02:27:12.637Z,11.40
2018-12-14T02:29:41.424Z,11.73
2018-12-14T02:32:10.446Z,11.77
2018-12-14T02:34:39.387Z,11.73
2018-12-14T02:37:07.958Z,11.47
2018-12-14T02:39:36.480Z,10.80
2018-12-14T02:42:05.037Z,12.90
2018-12-14T02:44:33.622Z,11.27
2018-12-14T02:47:02.144Z,10.10
2018-12-14T02:49:30.603Z,10.20
2018-12-14T02:51:59.046Z,10.70
2018-12-14T02:54:27.543Z,10.23
2018-12-14T02:56:55.977Z,11.43
2018-12-14T02:59:24.446Z,10.20
2018-12-14T03:01:52.915Z,9.70
2018-12-14T03:04:21.415Z,9.83
2018-12-14T03:06:49.966Z,9.67
2018-12-14T03:09:19.005Z,8.93
2018-12-14T03:11:47.523Z,9.70
2018-12-14T03:14:16.213Z,10.00
2018-12-14T03:16:44.720Z,9.60
2018-12-14T03:19:13.259Z,9.23
2018-12-14T03:21:41.739Z,8.93
2018-12-14T03:24:10.300Z,10.77
2018-12-14T03:26:38.810Z,8.97
2018-12-14T03:29:07.389Z,8.67
2018-12-14T03:31:35.804Z,9.33
2018-12-14T03:34:04.212Z,7.87
2018-12-14T03:36:32.687Z,10.00
2018-12-14T03:39:01.347Z,10.03
2018-12-14T03:41:29.785Z,11.00
2018-12-14T03:43:58.223Z,10.70
2018-12-14T03:46:26.806Z,11.60
2018-12-14T03:48:55.345Z,11.83
2018-12-14T03:51:28.702Z,12.87
2018-12-14T03:53:57.377Z,13.17
2018-12-14T03:56:26.069Z,13.97
2018-12-14T03:58:54.723Z,13.90
2018-12-14T04:01:23.125Z,12.70
2018-12-14T04:03:51.661Z,13.33
2018-12-14T04:06:20.274Z,13.43
2018-12-14T04:08:48.659Z,12.87
2018-12-14T04:11:17.172Z,13.00
2018-12-14T04:13:45.684Z,13.30
2018-12-14T04:16:14.571Z,13.73
2018-12-14T04:18:43.001Z,13.70
2018-12-14T04:21:11.590Z,14.50
2018-12-14T04:23:41.035Z,14.43
2018-12-14T04:26:09.609Z,16.80
2018-12-14T04:28:38.200Z,17.30
2018-12-14T04:31:06.623Z,21.27
2018-12-14T04:33:35.695Z,18.87
2018-12-14T04:36:04.330Z,19.17
2018-12-14T04:38:32.802Z,21.10
2018-12-14T04:41:01.221Z,20.13
2018-12-14T04:43:29.808Z,23.17
2018-12-14T04:45:58.220Z,19.60
2018-12-14T04:48:26.771Z,20.60
2018-12-14T04:50:55.360Z,19.03
2018-12-14T04:53:23.884Z,20.67
2018-12-14T04:55:52.298Z,18.10
2018-12-14T04:58:20.900Z,18.73
2018-12-14T05:00:49.474Z,16.87
2018-12-14T05:03:17.924Z,15.53
2018-12-14T05:05:46.645Z,15.57
2018-12-14T05:08:15.207Z,13.80
2018-12-14T05:10:43.846Z,15.53
2018-12-14T05:13:12.631Z,13.87
2018-12-14T05:15:41.072Z,13.97
2018-12-14T05:18:09.516Z,15.27
2018-12-14T05:20:38.005Z,14.57
2018-12-14T05:23:06.443Z,12.50
2018-12-14T05:25:34.841Z,12.57
2018-12-14T05:28:03.432Z,14.37
2018-12-14T05:30:31.844Z,12.70
2018-12-14T05:33:00.350Z,12.53
2018-12-14T05:35:29.127Z,14.00
2018-12-14T05:37:57.771Z,15.20
2018-12-14T05:40:26.224Z,15.03
2018-12-14T05:42:54.703Z,15.13
2018-12-14T05:45:23.271Z,17.37
2018-12-14T05:47:51.939Z,22.17
2018-12-14T05:50:20.389Z,24.37
2018-12-14T05:52:48.801Z,25.40
2018-12-14T05:55:17.511Z,24.77
2018-12-14T05:57:46.101Z,25.60
2018-12-14T06:00:14.650Z,23.43
2018-12-14T06:02:43.077Z,21.73
2018-12-14T06:05:11.697Z,19.93
2018-12-14T06:07:40.346Z,22.17
2018-12-14T06:10:09.001Z,18.87
2018-12-14T06:12:37.632Z,17.70
2018-12-14T06:15:06.467Z,17.23
2018-12-14T06:17:34.975Z,14.13
2018-12-14T06:20:03.706Z,12.93
2018-12-14T06:22:32.130Z,13.17
2018-12-14T06:25:00.541Z,11.50
2018-12-14T06:27:29.101Z,10.20
2018-12-14T06:29:57.867Z,9.40
2018-12-14T06:32:26.402Z,10.07
2018-12-14T06:34:54.901Z,9.17
2018-12-14T06:37:23.853Z,9.27
2018-12-14T06:39:52.263Z,9.37
2018-12-14T06:42:21.244Z,9.57
2018-12-14T06:44:49.745Z,10.37
2018-12-14T06:47:18.140Z,13.27
2018-12-14T06:49:46.621Z,10.00
2018-12-14T06:52:15.072Z,11.90
2018-12-14T06:54:43.498Z,11.20
2018-12-14T06:57:12.094Z,11.70
2018-12-14T06:59:40.663Z,11.30
2018-12-14T07:02:09.178Z,13.17
2018-12-14T07:04:37.665Z,14.60
2018-12-14T07:07:06.103Z,12.83
2018-12-14T07:09:35.104Z,14.53
2018-12-14T07:12:03.589Z,11.40
2018-12-14T07:14:32.132Z,12.23
2018-12-14T07:17:00.513Z,12.90
2018-12-14T07:19:28.975Z,14.23
2018-12-14T07:21:57.591Z,11.73
2018-12-14T07:24:26.082Z,14.87
2018-12-14T07:26:55.090Z,12.63
2018-12-14T07:29:23.504Z,13.13
2018-12-14T07:31:52.032Z,12.67
2018-12-14T07:34:20.624Z,13.60
2018-12-14T07:36:49.295Z,14.27
2018-12-14T07:39:17.840Z,14.43
2018-12-14T07:41:46.345Z,13.30
2018-12-14T07:44:14.873Z,13.43
2018-12-14T07:46:43.340Z,14.37
2018-12-14T07:49:11.958Z,13.67
2018-12-14T07:51:40.633Z,13.90
2018-12-14T07:54:09.054Z,15.00
2018-12-14T07:56:37.525Z,14.03
2018-12-14T07:59:06.406Z,13.37
2018-12-14T08:01:34.815Z,14.40
2018-12-14T08:04:03.542Z,14.00
2018-12-14T08:06:32.099Z,13.87
2018-12-14T08:09:00.503Z,13.87
2018-12-14T08:11:29.016Z,13.77
2018-12-14T08:13:57.454Z,19.47
2018-12-14T08:16:26.167Z,18.63
2018-12-14T08:18:54.637Z,20.70
2018-12-14T08:21:23.076Z,21.63
2018-12-14T08:23:51.492Z,20.07
2018-12-14T08:26:20.058Z,23.80
2018-12-14T08:28:48.496Z,34.73
2018-12-14T08:31:17.062Z,30.07
2018-12-14T08:33:45.682Z,23.13
2018-12-14T08:36:14.202Z,22.20
2018-12-14T08:38:42.691Z,20.70
2018-12-14T08:41:11.299Z,19.77
2018-12-14T08:43:41.634Z,21.87
2018-12-14T08:46:10.403Z,20.97
2018-12-14T08:48:38.908Z,21.73
2018-12-14T08:51:07.347Z,20.43
2018-12-14T08:53:36.322Z,18.53
2018-12-14T08:56:04.864Z,16.20
2018-12-14T08:58:33.429Z,18.50
2018-12-14T09:01:01.976Z,16.33
2018-12-14T09:03:30.451Z,16.77
2018-12-14T09:05:58.954Z,19.40
2018-12-14T09:08:27.381Z,16.50
2018-12-14T09:10:55.942Z,15.00
2018-12-14T09:13:24.339Z,16.47
2018-12-14T09:15:52.935Z,16.67
2018-12-14T09:18:21.538Z,16.03
2018-12-14T09:20:50.045Z,21.70
2018-12-14T09:23:18.607Z,17.90
2018-12-14T09:25:47.140Z,18.83
2018-12-14T09:28:15.673Z,20.23
2018-12-14T09:30:44.358Z,20.47
2018-12-14T09:33:12.992Z,20.83
2018-12-14T09:35:41.419Z,23.67
2018-12-14T09:38:09.863Z,23.20
2018-12-14T09:40:38.505Z,21.00
2018-12-14T09:43:07.007Z,20.33
2018-12-14T09:45:35.433Z,19.37
2018-12-14T09:48:04.067Z,20.30
2018-12-14T09:50:32.631Z,19.63
2018-12-14T09:53:01.053Z,16.77
2018-12-14T09:55:29.982Z,17.63
2018-12-14T09:57:58.513Z,21.07
2018-12-14T10:00:27.167Z,19.27
2018-12-14T10:02:55.796Z,17.63
2018-12-14T10:05:24.317Z,19.70
2018-12-14T10:07:52.733Z,21.60
2018-12-14T10:10:21.207Z,18.50
2018-12-14T10:12:49.628Z,17.97
2018-12-14T10:15:18.234Z,19.47
2018-12-14T10:17:46.737Z,21.77
2018-12-14T10:20:15.177Z,19.63
2018-12-14T10:22:43.584Z,24.53
2018-12-14T10:25:12.122Z,25.63
2018-12-14T10:27:40.556Z,66.73
2018-12-14T10:30:09.471Z,26.90
2018-12-14T10:32:38.049Z,23.57
2018-12-14T10:35:08.385Z,27.30
2018-12-14T10:37:36.984Z,26.30
2018-12-14T10:40:06.478Z,24.30
2018-12-14T10:42:34.885Z,24.87
2018-12-14T10:45:03.581Z,23.03
2018-12-14T10:47:32.086Z,21.30
2018-12-14T10:50:00.534Z,22.20
2018-12-14T10:52:28.941Z,21.83
2018-12-14T10:54:57.743Z,23.53
2018-12-14T10:57:26.419Z,22.10
2018-12-14T10:59:54.853Z,31.30
2018-12-14T11:02:23.362Z,24.27
2018-12-14T11:04:51.807Z,25.27
2018-12-14T11:07:20.358Z,24.07
2018-12-14T11:09:48.872Z,21.43
2018-12-14T11:12:17.293Z,24.10
2018-12-14T11:14:45.677Z,27.03
2018-12-14T11:17:14.125Z,28.30
2018-12-14T11:19:42.620Z,24.03
2018-12-14T11:22:11.140Z,22.30
2018-12-14T11:24:39.733Z,21.40
2018-12-14T11:27:08.339Z,21.43
2018-12-14T11:29:36.754Z,20.83
2018-12-14T11:32:05.283Z,20.97
2018-12-14T11:34:33.896Z,22.67
2018-12-14T11:37:02.360Z,21.67
2018-12-14T11:39:30.816Z,21.90
2018-12-14T11:41:59.488Z,21.00
2018-12-14T11:44:27.916Z,21.93
2018-12-14T11:46:56.401Z,22.77
2018-12-14T11:49:24.829Z,21.00
2018-12-14T11:51:53.279Z,21.93
2018-12-14T11:54:21.828Z,22.80
2018-12-14T11:56:50.422Z,22.33
2018-12-14T11:59:19.003Z,19.23
2018-12-14T12:01:47.593Z,21.43
2018-12-14T12:04:16.003Z,18.97
2018-12-14T12:06:44.551Z,17.70
2018-12-14T12:09:13.221Z,21.20
2018-12-14T12:11:41.767Z,20.10
2018-12-14T12:14:10.456Z,18.93
2018-12-14T12:16:39.027Z,18.43
2018-12-14T12:19:07.474Z,16.40
2018-12-14T12:21:35.996Z,20.90
2018-12-14T12:24:04.566Z,16.37
2018-12-14T12:26:32.982Z,17.87
2018-12-14T12:29:01.450Z,23.83
2018-12-14T12:31:29.913Z,17.00
2018-12-14T12:33:58.315Z,18.20
2018-12-14T12:36:26.853Z,22.20
2018-12-14T12:38:55.334Z,22.97
2018-12-14T12:41:23.845Z,19.17
2018-12-14T12:43:52.278Z,18.60
2018-12-14T12:46:20.740Z,21.63
2018-12-14T12:48:49.707Z,21.17
2018-12-14T12:51:18.668Z,17.57
2018-12-14T12:53:47.110Z,18.03
2018-12-14T12:56:16.133Z,19.80
2018-12-14T12:58:44.678Z,17.20
2018-12-14T13:01:13.445Z,16.97
2018-12-14T13:03:41.872Z,17.80
2018-12-14T13:06:10.379Z,18.00
2018-12-14T13:08:39.574Z,21.47
2018-12-14T13:11:08.279Z,23.50
2018-12-14T13:13:36.790Z,18.27
2018-12-14T13:16:05.298Z,19.30
2018-12-14T13:18:33.743Z,24.00
2018-12-14T13:21:02.322Z,18.50
2018-12-14T13:23:30.916Z,19.00
2018-12-14T13:26:00.371Z,104.77
2018-12-14T13:28:29.287Z,79.30
2018-12-14T13:30:57.927Z,60.77
2018-12-14T13:33:26.694Z,24.87
2018-12-14T13:35:55.379Z,84.97
2018-12-14T13:38:23.843Z,21.27
2018-12-14T13:40:52.246Z,32.97
2018-12-14T13:43:20.655Z,69.30
2018-12-14T13:45:49.095Z,38.80
2018-12-14T13:48:17.609Z,37.00
2018-12-14T13:50:46.041Z,21.23
2018-12-14T13:53:14.530Z,25.50
2018-12-14T13:55:43.086Z,20.53
2018-12-14T13:58:11.727Z,22.77
2018-12-14T14:00:40.195Z,30.33
2018-12-14T14:03:08.780Z,27.97
2018-12-14T14:05:37.326Z,17.20
2018-12-14T14:08:05.831Z,19.40
2018-12-14T14:10:34.362Z,33.90
2018-12-14T14:13:02.919Z,27.63
2018-12-14T14:15:31.359Z,35.37
2018-12-14T14:17:59.913Z,32.00
2018-12-14T14:20:28.529Z,23.10
2018-12-14T14:22:57.095Z,32.97
2018-12-14T14:25:26.655Z,52.00
2018-12-14T14:27:55.078Z,119.60
2018-12-14T14:30:23.550Z,102.93
2018-12-14T14:32:51.994Z,28.00
2018-12-14T14:35:20.512Z,39.63
2018-12-14T14:37:49.007Z,75.03
2018-12-14T14:40:17.399Z,72.27
2018-12-14T14:42:45.964Z,39.40
2018-12-14T14:45:14.416Z,33.40
2018-12-14T14:47:42.871Z,48.60
2018-12-14T14:50:11.303Z,70.60
2018-12-14T14:52:39.776Z,65.90
2018-12-14T14:55:08.599Z,48.27
2018-12-14T14:57:37.184Z,43.60
2018-12-14T15:00:06.487Z,29.17
2018-12-14T15:02:36.251Z,28.87
2018-12-14T15:05:05.991Z,24.97
2018-12-14T15:07:34.455Z,28.37
2018-12-14T15:10:03.219Z,41.40
2018-12-14T15:12:31.771Z,38.77
2018-12-14T15:15:06.372Z,35.37
2018-12-14T15:17:30.648Z,51.13
2018-12-14T15:19:59.111Z,68.77
2018-12-14T15:22:27.601Z,72.63
2018-12-14T15:24:56.025Z,89.07
2018-12-14T15:27:24.574Z,90.03
2018-12-14T15:29:53.063Z,73.53
2018-12-14T15:32:21.705Z,63.70
2018-12-14T15:34:50.119Z,67.03
2018-12-14T15:37:18.571Z,42.93
2018-12-14T15:39:47.129Z,56.63
2018-12-14T15:42:15.648Z,44.70
2018-12-14T15:44:44.124Z,49.37
2018-12-14T15:47:12.553Z,39.57
2018-12-14T15:49:40.999Z,48.50
2018-12-14T15:52:09.497Z,39.70
2018-12-14T15:54:37.945Z,35.87
2018-12-14T15:57:06.385Z,29.83
2018-12-14T15:59:34.861Z,26.20
2018-12-14T16:02:03.281Z,28.17
2018-12-14T16:04:31.740Z,33.40
2018-12-14T16:07:00.219Z,28.77
2018-12-14T16:09:28.652Z,28.67
2018-12-14T16:11:58.226Z,29.10
2018-12-14T16:14:26.881Z,29.67
2018-12-14T16:16:55.328Z,29.03
2018-12-14T16:19:23.874Z,30.87
2018-12-14T16:21:52.427Z,31.40
2018-12-14T16:24:20.917Z,32.27
2018-12-14T16:26:49.347Z,33.23
2018-12-14T16:29:17.833Z,34.60
2018-12-14T16:31:46.253Z,39.37
2018-12-14T16:34:14.805Z,40.30
2018-12-14T16:36:43.300Z,40.60
2018-12-14T16:39:11.827Z,37.63
2018-12-14T16:41:40.301Z,38.23
2018-12-14T16:44:08.773Z,37.97
2018-12-14T16:46:37.359Z,36.80
2018-12-14T16:49:05.797Z,60.97
2018-12-14T16:51:34.255Z,80.60
2018-12-14T16:54:06.520Z,61.37
2018-12-14T16:56:35.212Z,50.93
2018-12-14T16:59:03.802Z,60.90
2018-12-14T17:01:32.366Z,62.50
2018-12-14T17:04:00.901Z,44.33
2018-12-14T17:06:29.325Z,56.40
2018-12-14T17:08:57.752Z,57.80
2018-12-14T17:11:26.368Z,59.53
2018-12-14T17:13:54.791Z,56.97
2018-12-14T17:16:23.223Z,51.47
2018-12-14T17:18:51.869Z,51.77
2018-12-14T17:21:20.387Z,57.37
2018-12-14T17:23:48.825Z,61.13
2018-12-14T17:26:17.460Z,68.27
2018-12-14T17:28:46.038Z,62.47
2018-12-14T17:31:14.482Z,64.37
2018-12-14T17:33:42.978Z,56.00
2018-12-14T17:36:11.467Z,49.83
2018-12-14T17:38:40.408Z,47.60
2018-12-14T17:41:09.050Z,44.20
2018-12-14T17:43:37.499Z,45.43
2018-12-14T17:46:05.917Z,45.43
2018-12-14T17:48:34.398Z,46.00
2018-12-14T17:51:02.847Z,46.80
2018-12-14T17:53:31.277Z,41.63
2018-12-14T17:55:59.835Z,39.43
2018-12-14T17:58:28.324Z,40.17
2018-12-14T18:00:58.492Z,40.03
2018-12-14T18:03:27.402Z,47.83
2018-12-14T18:05:55.855Z,61.67
2018-12-14T18:08:24.295Z,65.90
2018-12-14T18:10:52.922Z,65.17
2018-12-14T18:13:21.574Z,54.30
2018-12-14T18:15:50.147Z,51.27
2018-12-14T18:18:18.666Z,39.67
2018-12-14T18:20:47.111Z,39.27
2018-12-14T18:23:15.524Z,38.73
2018-12-14T18:25:43.968Z,42.50
2018-12-14T18:28:12.459Z,47.60
2018-12-14T18:30:40.911Z,55.87
2018-12-14T18:33:09.348Z,52.97
2018-12-14T18:35:37.775Z,65.97
2018-12-14T18:38:06.186Z,74.33
2018-12-14T18:40:35.112Z,68.73
2018-12-14T18:43:03.831Z,50.63
2018-12-14T18:45:32.281Z,48.23
2018-12-14T18:48:00.910Z,43.27
2018-12-14T18:50:29.351Z,47.03
2018-12-14T18:52:57.827Z,43.37
2018-12-14T18:55:26.415Z,42.10
2018-12-14T18:57:54.850Z,39.03
2018-12-14T19:01:47.758Z,36.23
2018-12-14T19:04:16.196Z,34.00
2018-12-14T19:06:45.337Z,32.13
2018-12-14T19:09:14.094Z,31.40
2018-12-14T19:11:42.557Z,35.90
2018-12-14T19:14:11.022Z,37.67
2018-12-14T19:16:39.759Z,40.63
2018-12-14T19:19:08.304Z,44.10
2018-12-14T19:21:37.015Z,39.80
2018-12-14T19:24:05.542Z,39.60
2018-12-14T19:26:33.979Z,40.47
2018-12-14T19:29:02.512Z,33.80
2018-12-14T19:31:31.907Z,29.77
2018-12-14T19:34:00.328Z,30.80
2018-12-14T19:36:28.823Z,32.20
2018-12-14T19:38:57.521Z,41.03
2018-12-14T19:41:25.954Z,66.97
2018-12-14T19:43:54.381Z,79.93
2018-12-14T19:46:22.833Z,68.53
2018-12-14T19:48:51.263Z,46.13
2018-12-14T19:51:19.716Z,41.70
2018-12-14T19:53:51.352Z,37.60
2018-12-14T19:56:19.768Z,34.33
2018-12-14T19:58:48.220Z,34.47
2018-12-14T20:01:16.745Z,37.57
2018-12-14T20:03:45.214Z,33.77
2018-12-14T20:06:13.679Z,41.17
2018-12-14T20:08:42.231Z,41.90
2018-12-14T20:11:10.700Z,35.70
2018-12-14T20:13:39.147Z,32.70
2018-12-14T20:16:12.683Z,29.97
2018-12-14T20:18:38.112Z,30.07
2018-12-14T20:21:06.605Z,30.20
2018-12-14T20:23:35.136Z,32.00
2018-12-14T20:26:03.590Z,32.20
2018-12-14T20:28:32.167Z,30.77
2018-12-14T20:31:00.780Z,32.20
2018-12-14T20:33:29.211Z,34.53
2018-12-14T20:35:57.664Z,28.83
2018-12-14T20:38:26.262Z,29.20
2018-12-14T20:40:54.727Z,26.43
2018-12-14T20:43:23.191Z,25.93
2018-12-14T20:45:51.719Z,25.23
2018-12-14T20:48:20.115Z,22.90
2018-12-14T20:50:48.566Z,22.60
2018-12-14T20:53:17.042Z,21.10
2018-12-14T20:55:45.469Z,20.30
2018-12-14T20:58:14.029Z,22.07
2018-12-14T21:00:42.505Z,21.63
2018-12-14T21:03:10.972Z,21.40
2018-12-14T21:05:39.469Z,21.10
2018-12-14T21:08:07.937Z,21.53
2018-12-14T21:10:36.486Z,22.37
2018-12-14T21:13:04.950Z,20.80
2018-12-14T21:15:33.460Z,22.73
2018-12-14T21:18:02.001Z,21.23
2018-12-14T21:20:30.419Z,20.57
2018-12-14T21:22:59.057Z,20.33
2018-12-14T21:25:27.610Z,21.87
2018-12-14T21:27:56.082Z,27.60
2018-12-14T21:30:24.583Z,30.73
2018-12-14T21:32:53.018Z,28.07
2018-12-14T21:35:21.454Z,34.67
2018-12-14T21:37:50.039Z,30.43
2018-12-14T21:40:18.480Z,27.40
2018-12-14T21:42:46.944Z,24.87
2018-12-14T21:45:15.531Z,29.67
2018-12-14T21:47:43.960Z,32.47
2018-12-14T21:50:12.369Z,29.53
2018-12-14T21:52:40.867Z,35.67
2018-12-14T21:55:09.325Z,31.87
2018-12-14T21:57:38.383Z,33.47
2018-12-14T22:00:09.222Z,28.23
2018-12-14T22:02:37.731Z,27.43
2018-12-14T22:05:06.994Z,29.80
2018-12-14T22:07:35.484Z,27.00
2018-12-14T22:10:04.473Z,27.80
2018-12-14T22:12:32.892Z,28.40
2018-12-14T22:15:01.359Z,30.37
2018-12-14T22:17:29.870Z,29.97
2018-12-14T22:19:58.297Z,34.13
2018-12-14T22:22:26.843Z,37.57
2018-12-14T22:24:55.412Z,35.67
2018-12-14T22:27:23.932Z,29.53
2018-12-14T22:29:52.355Z,30.57
2018-12-14T22:32:20.797Z,27.73
2018-12-14T22:34:49.353Z,28.20
2018-12-14T22:37:17.863Z,25.20
2018-12-14T22:39:46.434Z,26.63
2018-12-14T22:42:14.967Z,26.20
2018-12-14T22:44:43.416Z,28.70
2018-12-14T22:47:12.002Z,28.63
2018-12-14T22:49:40.447Z,28.00
2018-12-14T22:52:12.307Z,29.87
2018-12-14T22:54:40.837Z,30.53
2018-12-14T22:57:09.274Z,32.03
2018-12-14T22:59:37.938Z,29.63
2018-12-14T23:02:06.447Z,29.50
2018-12-14T23:04:34.972Z,29.47
2018-12-14T23:07:03.491Z,27.67
2018-12-14T23:09:31.896Z,24.63
2018-12-14T23:12:00.315Z,26.87
2018-12-14T23:14:28.901Z,26.70
2018-12-14T23:16:57.420Z,27.00
2018-12-14T23:19:26.039Z,30.00
2018-12-14T23:21:54.830Z,27.87
2018-12-14T23:24:23.279Z,26.03
2018-12-14T23:26:51.700Z,27.13
2018-12-14T23:29:20.169Z,28.80
2018-12-14T23:31:48.604Z,29.67
2018-12-14T23:34:17.191Z,24.37
2018-12-14T23:36:45.782Z,25.37
2018-12-14T23:39:14.197Z,23.87
2018-12-14T23:41:42.687Z,24.00
2018-12-14T23:44:11.194Z,23.17
2018-12-14T23:46:39.599Z,20.73
2018-12-14T23:49:08.071Z,20.73
2018-12-14T23:51:36.531Z,21.27
2018-12-14T23:54:04.983Z,20.57
2018-12-14T23:56:33.547Z,20.23
2018-12-14T23:59:02.045Z,20.73
